Time;durP1;ratioP1;P1;durP2;ratioP2;P2;SDS_P1;SDS_P2;PMS_P1;PMS_P2;Temp;Humidity;BMP_temperature;BMP_pressure;BME280_temperature;BME280_humidity;BME280_pressure;Samples;Min_cycle;Max_cycle;Signal;HPM_P1;HPM_P2
2023/04/08 00:01:39;;;;;;;18.90;13.70;;;;;;;6.42;100.00;102163.81;4926154;29;20044;-86
2023/04/08 00:04:05;;;;;;;18.02;11.43;;;;;;;6.30;100.00;102158.00;4910457;29;20045;-86
2023/04/08 00:06:30;;;;;;;18.00;12.00;;;;;;;6.40;100.00;102168.06;4912566;29;20112;-86
2023/04/08 00:08:56;;;;;;;17.75;11.80;;;;;;;6.36;100.00;102161.50;4914798;29;20142;-86
2023/04/08 00:11:21;;;;;;;24.40;12.73;;;;;;;6.38;100.00;102171.16;4924617;29;20027;-86
2023/04/08 00:13:46;;;;;;;20.48;11.55;;;;;;;6.35;100.00;102157.09;4902026;29;20036;-86
2023/04/08 00:16:12;;;;;;;19.38;12.32;;;;;;;6.24;100.00;102164.84;4894617;29;20466;-86
2023/04/08 00:18:38;;;;;;;21.17;12.82;;;;;;;6.13;100.00;102142.03;4896312;29;20303;-86
2023/04/08 00:21:03;;;;;;;17.27;12.52;;;;;;;6.27;100.00;102165.03;4905679;29;20027;-87
2023/04/08 00:23:29;;;;;;;19.38;12.45;;;;;;;6.20;100.00;102164.69;4921724;29;20035;-85
2023/04/08 00:25:54;;;;;;;19.58;12.70;;;;;;;6.14;100.00;102165.13;4899897;29;20040;-85
2023/04/08 00:28:20;;;;;;;18.77;12.50;;;;;;;6.04;100.00;102158.66;4920411;29;20110;-86
2023/04/08 00:30:45;;;;;;;21.95;13.35;;;;;;;6.15;100.00;102166.75;4901365;29;20772;-86
2023/04/08 00:33:11;;;;;;;15.98;10.25;;;;;;;5.96;100.00;102164.16;4906860;29;20027;-86
2023/04/08 00:35:36;;;;;;;16.75;11.98;;;;;;;6.01;100.00;102180.69;4916674;29;20034;-85
2023/04/08 00:38:03;;;;;;;17.13;11.93;;;;;;;6.01;100.00;102177.91;4904408;29;20122;-86
2023/04/08 00:40:28;;;;;;;19.38;11.95;;;;;;;5.93;100.00;102170.34;4905936;29;20078;-85
2023/04/08 00:42:56;;;;;;;20.85;12.90;;;;;;;5.83;100.00;102163.84;4917493;29;20032;-86
2023/04/08 00:45:21;;;;;;;18.40;12.27;;;;;;;5.95;100.00;102179.22;4920030;29;20024;-86
2023/04/08 00:47:51;;;;;;;19.35;12.35;;;;;;;5.96;100.00;102187.22;4904506;29;20036;-86
2023/04/08 00:50:17;;;;;;;22.95;12.20;;;;;;;5.90;100.00;102186.50;4922777;29;20034;-86
2023/04/08 00:52:42;;;;;;;16.10;11.35;;;;;;;5.84;100.00;102176.63;4929647;29;20048;-85
2023/04/08 00:55:07;;;;;;;20.15;12.82;;;;;;;5.82;100.00;102198.34;4909253;29;20039;-86
2023/04/08 00:57:33;;;;;;;21.83;12.68;;;;;;;5.73;100.00;102171.63;4921948;29;20397;-86
2023/04/08 00:59:59;;;;;;;16.70;11.57;;;;;;;5.72;100.00;102176.34;4922579;29;20040;-86
2023/04/08 01:03:04;;;;;;;18.20;11.88;;;;;;;5.77;100.00;102194.88;4919048;29;20064;-86
2023/04/08 01:05:45;;;;;;;19.88;13.07;;;;;;;5.70;100.00;102189.75;4900132;29;20422;-86
2023/04/08 01:08:10;;;;;;;15.88;11.45;;;;;;;5.70;100.00;102187.78;4923600;29;20182;-86
2023/04/08 01:10:40;;;;;;;18.92;12.07;;;;;;;5.66;100.00;102199.81;4904996;29;20528;-87
2023/04/08 01:13:09;;;;;;;16.13;11.30;;;;;;;5.49;100.00;102175.47;4904286;29;20024;-86
2023/04/08 01:15:37;;;;;;;19.25;11.35;;;;;;;5.53;100.00;102175.69;4905741;29;20027;-86
2023/04/08 01:18:06;;;;;;;17.20;11.63;;;;;;;5.57;100.00;102185.84;4912617;29;20035;-87
2023/04/08 01:20:33;;;;;;;22.67;13.85;;;;;;;5.64;100.00;102202.09;4918800;29;20035;-86
2023/04/08 01:23:16;;;;;;;18.77;11.45;;;;;;;5.52;100.00;102199.84;4904385;29;20110;-85
2023/04/08 01:26:00;;;;;;;;;;;;;;;5.57;100.00;102205.31;4900381;29;20031;-87
2023/04/08 01:28:27;;;;;;;;;;;;;;;5.56;100.00;102206.41;4919070;29;20118;-86
2023/04/08 01:30:55;;;;;;;15.55;10.68;;;;;;;5.47;100.00;102192.44;4916970;29;20485;-86
2023/04/08 01:33:21;;;;;;;15.30;10.00;;;;;;;5.46;100.00;102188.03;4900175;29;20122;-87
2023/04/08 01:35:47;;;;;;;16.80;10.73;;;;;;;5.40;100.00;102197.63;4899158;29;20635;-87
2023/04/08 01:38:19;;;;;;;20.80;11.48;;;;;;;5.46;100.00;102203.84;4902609;29;20069;-86
2023/04/08 01:40:46;;;;;;;17.35;11.48;;;;;;;5.44;100.00;102197.78;4914851;29;20417;-87
2023/04/08 01:43:16;;;;;;;17.55;11.35;;;;;;;5.37;100.00;102198.22;4920570;29;20039;-87
2023/04/08 01:45:46;;;;;;;19.25;11.45;;;;;;;5.44;100.00;102212.53;4917169;29;20035;-87
2023/04/08 01:48:13;;;;;;;15.90;10.80;;;;;;;5.33;100.00;102205.53;4917960;29;21607;-86
2023/04/08 01:50:44;;;;;;;16.00;9.88;;;;;;;5.35;100.00;102205.22;4906954;29;20060;-87
2023/04/08 01:53:11;;;;;;;18.38;10.93;;;;;;;5.28;100.00;102195.34;4903583;29;20032;-86
2023/04/08 01:55:38;;;;;;;16.60;11.23;;;;;;;5.30;100.00;102208.94;4906058;29;20032;-86
2023/04/08 01:58:06;;;;;;;17.63;10.27;;;;;;;5.34;100.00;102209.16;4926096;29;20070;-87
2023/04/08 02:00:33;;;;;;;14.90;9.50;;;;;;;5.21;100.00;102205.25;4921280;29;20031;-86
2023/04/08 02:03:02;;;;;;;16.25;10.23;;;;;;;5.35;100.00;102216.31;4917763;29;20582;-87
2023/04/08 02:05:27;;;;;;;16.20;10.95;;;;;;;5.16;100.00;102197.00;4919181;29;20593;-87
2023/04/08 02:07:52;;;;;;;18.65;11.57;;;;;;;5.26;100.00;102210.69;4921926;29;20036;-87
2023/04/08 02:10:18;;;;;;;13.77;9.82;;;;;;;5.16;100.00;102192.28;4924931;29;20406;-87
2023/04/08 02:12:44;;;;;;;15.20;10.25;;;;;;;5.23;100.00;102214.09;4907385;29;20031;-87
2023/04/08 02:15:12;;;;;;;15.13;9.90;;;;;;;5.24;100.00;102216.53;4907640;29;20030;-87
2023/04/08 02:17:43;;;;;;;17.35;10.55;;;;;;;5.21;100.00;102225.50;4910530;29;20066;-87
2023/04/08 02:20:12;;;;;;;13.73;9.43;;;;;;;5.13;100.00;102212.34;4924697;29;20034;-87
2023/04/08 02:22:58;;;;;;;15.20;10.80;;;;;;;5.20;100.00;102225.78;4904853;29;20054;-87
2023/04/08 02:25:25;;;;;;;18.02;10.32;;;;;;;5.08;100.00;102229.91;4927197;29;20079;-87
2023/04/08 02:27:52;;;;;;;14.23;9.75;;;;;;;5.14;100.00;102235.34;4907054;29;20028;-87
2023/04/08 02:30:18;;;;;;;15.48;10.50;;;;;;;4.95;100.00;102219.59;4922969;29;20098;-87
2023/04/08 02:32:46;;;;;;;17.98;11.27;;;;;;;4.97;100.00;102234.00;4908622;29;20031;-87
2023/04/08 02:35:12;;;;;;;20.77;10.48;;;;;;;5.06;100.00;102232.16;4925320;29;20091;-87
2023/04/08 02:37:37;;;;;;;13.35;9.80;;;;;;;5.04;100.00;102222.50;4923036;29;20039;-87
2023/04/08 02:40:03;;;;;;;17.65;10.35;;;;;;;4.99;100.00;102231.72;4909788;29;20489;-88
2023/04/08 02:42:29;;;;;;;19.60;10.93;;;;;;;5.04;100.00;102234.44;4918890;29;20127;-87
2023/04/08 02:44:56;;;;;;;14.45;9.77;;;;;;;4.86;100.00;102229.78;4901004;29;20028;-87
2023/04/08 02:47:21;;;;;;;18.48;10.35;;;;;;;4.82;100.00;102225.97;4907707;29;20051;-87
2023/04/08 02:49:46;;;;;;;17.83;8.65;;;;;;;4.82;100.00;102225.97;4906123;29;20023;-87
2023/04/08 02:52:12;;;;;;;13.23;9.55;;;;;;;5.01;100.00;102246.13;4918964;29;20782;-88
2023/04/08 02:54:37;;;;;;;13.35;9.30;;;;;;;4.81;100.00;102221.56;4923619;29;20054;-87
2023/04/08 02:57:02;;;;;;;21.38;10.13;;;;;;;4.93;100.00;102241.28;4925686;29;20073;-87
2023/04/08 02:59:28;;;;;;;14.82;10.15;;;;;;;4.76;100.00;102233.53;4917073;29;20086;-87
2023/04/08 03:01:53;;;;;;;14.73;9.82;;;;;;;4.83;100.00;102249.81;4908905;29;20235;-87
2023/04/08 03:04:18;;;;;;;14.73;8.98;;;;;;;4.84;100.00;102248.69;4923709;29;20067;-87
2023/04/08 03:06:44;;;;;;;16.42;9.95;;;;;;;4.89;100.00;102251.34;4932847;29;20142;-87
2023/04/08 03:09:09;;;;;;;12.48;9.07;;;;;;;4.74;100.00;102243.31;4911967;29;20028;-87
2023/04/08 03:11:34;;;;;;;14.43;9.38;;;;;;;4.80;100.00;102244.88;4911008;29;20126;-87
2023/04/08 03:14:00;;;;;;;13.77;9.15;;;;;;;4.83;100.00;102258.16;4927340;29;20745;-87
2023/04/08 03:16:25;;;;;;;15.00;9.48;;;;;;;4.77;100.00;102254.63;4910341;29;20095;-86
2023/04/08 03:18:51;;;;;;;12.15;8.40;;;;;;;4.65;100.00;102244.00;4928518;29;20102;-86
2023/04/08 03:21:17;;;;;;;14.02;9.95;;;;;;;4.74;100.00;102257.19;4927195;29;20114;-87
2023/04/08 03:23:43;;;;;;;14.00;9.63;;;;;;;4.59;100.00;102255.50;4914998;29;20070;-87
2023/04/08 03:26:08;;;;;;;14.82;8.88;;;;;;;4.73;100.00;102250.00;4927323;29;20066;-87
2023/04/08 03:28:34;;;;;;;16.42;9.77;;;;;;;4.77;100.00;102262.13;4900599;29;21036;-87
2023/04/08 03:30:59;;;;;;;14.50;9.63;;;;;;;4.58;100.00;102246.34;4921336;29;20035;-87
2023/04/08 03:33:25;;;;;;;17.63;9.05;;;;;;;4.65;100.00;102252.31;4925495;29;20080;-86
2023/04/08 03:35:52;;;;;;;16.30;9.43;;;;;;;4.68;100.00;102262.00;4922609;29;20028;-87
2023/04/08 03:38:17;;;;;;;17.83;9.80;;;;;;;4.56;100.00;102256.94;4905468;29;20032;-86
2023/04/08 03:40:43;;;;;;;14.45;9.45;;;;;;;4.57;100.00;102261.34;4922737;29;20806;-87
2023/04/08 03:43:10;;;;;;;15.32;9.82;;;;;;;4.57;100.00;102263.28;4915929;29;20751;-86
2023/04/08 03:45:36;;;;;;;18.95;10.80;;;;;;;4.55;100.00;102255.28;4923413;29;20495;-87
2023/04/08 03:48:01;;;;;;;14.95;9.45;;;;;;;4.48;100.00;102271.47;4916898;29;20167;-87
2023/04/08 03:50:26;;;;;;;15.80;9.68;;;;;;;4.50;100.00;102269.22;4922898;29;20036;-87
2023/04/08 03:52:52;;;;;;;16.48;9.30;;;;;;;4.56;100.00;102275.53;4905184;29;20028;-86
2023/04/08 03:55:17;;;;;;;14.35;9.63;;;;;;;4.59;100.00;102272.13;4920426;29;20158;-86
2023/04/08 03:57:43;;;;;;;12.70;8.45;;;;;;;4.46;100.00;102265.41;4917246;29;20040;-87
2023/04/08 04:00:09;;;;;;;16.05;9.80;;;;;;;4.36;100.00;102271.13;4917120;29;20064;-86
2023/04/08 04:02:35;;;;;;;13.43;9.05;;;;;;;4.39;100.00;102268.56;4923272;29;20032;-86
2023/04/08 04:05:00;;;;;;;15.10;10.32;;;;;;;4.44;100.00;102282.34;4903686;29;20040;-87
2023/04/08 04:07:25;;;;;;;15.75;8.75;;;;;;;4.44;100.00;102270.44;4920059;29;20608;-86
2023/04/08 04:09:53;;;;;;;16.08;9.70;;;;;;;4.43;100.00;102271.56;4921681;29;20028;-87
2023/04/08 04:12:18;;;;;;;18.15;9.05;;;;;;;4.43;100.00;102274.34;4908281;29;20024;-87
2023/04/08 04:14:44;;;;;;;15.15;10.23;;;;;;;4.31;100.00;102287.84;4891701;29;20046;-86
2023/04/08 04:17:09;;;;;;;12.68;9.20;;;;;;;4.43;100.00;102296.53;4902506;29;20403;-86
2023/04/08 04:19:34;;;;;;;20.13;9.88;;;;;;;4.37;100.00;102281.09;4904109;29;20066;-86
2023/04/08 04:22:00;;;;;;;15.30;9.95;;;;;;;4.42;100.00;102278.22;4911279;29;20066;-86
2023/04/08 04:24:25;;;;;;;13.55;9.27;;;;;;;4.37;100.00;102281.09;4932285;29;20031;-87
2023/04/08 04:26:50;;;;;;;14.98;8.88;;;;;;;4.34;100.00;102284.47;4904738;29;20177;-86
2023/04/08 04:29:16;;;;;;;15.18;9.23;;;;;;;4.33;100.00;102291.97;4927782;29;20058;-87
2023/04/08 04:31:41;;;;;;;14.52;8.57;;;;;;;4.24;100.00;102277.97;4915737;29;20492;-87
2023/04/08 04:34:06;;;;;;;15.63;9.45;;;;;;;4.27;100.00;102288.44;4922130;29;20031;-87
2023/04/08 04:36:32;;;;;;;16.98;10.80;;;;;;;4.18;100.00;102290.25;4925421;29;20024;-87
2023/04/08 04:38:57;;;;;;;15.25;9.80;;;;;;;4.18;100.00;102286.66;4908400;29;20030;-87
2023/04/08 04:41:22;;;;;;;13.45;8.75;;;;;;;4.28;100.00;102306.72;4906470;29;20047;-87
2023/04/08 04:43:48;;;;;;;15.30;9.00;;;;;;;4.26;100.00;102292.34;4923437;29;20034;-87
2023/04/08 04:46:13;;;;;;;15.15;9.32;;;;;;;4.17;100.00;102302.44;4919802;29;20055;-87
2023/04/08 04:48:39;;;;;;;15.88;9.80;;;;;;;4.12;100.00;102304.47;4923967;29;20075;-87
2023/04/08 04:51:06;;;;;;;17.40;9.38;;;;;;;4.25;100.00;102321.16;4904617;29;20075;-88
2023/04/08 04:53:31;;;;;;;19.38;10.13;;;;;;;4.14;100.00;102328.00;4911759;29;20478;-87
2023/04/08 04:55:57;;;;;;;17.27;10.27;;;;;;;4.17;100.00;102316.28;4911331;29;20042;-87
2023/04/08 04:58:22;;;;;;;16.15;10.73;;;;;;;4.20;100.00;102320.44;4911063;29;20055;-87
2023/04/08 05:00:48;;;;;;;15.07;10.00;;;;;;;4.16;100.00;102325.75;4929601;29;20399;-86
2023/04/08 05:03:13;;;;;;;14.95;10.48;;;;;;;4.16;100.00;102327.69;4928376;29;20035;-86
2023/04/08 05:05:38;;;;;;;16.85;10.57;;;;;;;4.14;100.00;102322.44;4909513;29;20031;-88
2023/04/08 05:08:04;;;;;;;15.27;9.80;;;;;;;4.16;100.00;102331.28;4927050;29;20171;-87
2023/04/08 05:10:29;;;;;;;15.57;9.38;;;;;;;4.14;100.00;102332.72;4907924;29;20028;-87
2023/04/08 05:12:55;;;;;;;17.42;11.18;;;;;;;4.15;100.00;102339.88;4905581;29;20428;-86
2023/04/08 05:15:20;;;;;;;17.23;10.77;;;;;;;4.15;100.00;102335.16;4923290;29;20038;-87
2023/04/08 05:17:46;;;;;;;18.13;10.52;;;;;;;4.16;100.00;102336.00;4931268;29;20121;-87
2023/04/08 05:20:11;;;;;;;16.98;11.50;;;;;;;4.06;100.00;102332.25;4902455;29;20035;-87
2023/04/08 05:22:37;;;;;;;18.30;10.85;;;;;;;4.03;100.00;102329.25;4921845;29;20054;-87
2023/04/08 05:25:03;;;;;;;18.77;11.13;;;;;;;4.14;100.00;102350.16;4925391;29;20039;-87
2023/04/08 05:27:28;;;;;;;17.92;11.40;;;;;;;4.09;100.00;102339.16;4904062;29;20034;-87
2023/04/08 05:29:54;;;;;;;19.40;10.77;;;;;;;4.12;100.00;102341.31;4909291;29;20032;-87
2023/04/08 05:32:19;;;;;;;19.33;11.07;;;;;;;4.07;100.00;102338.63;4921231;29;20636;-87
2023/04/08 05:34:45;;;;;;;17.95;10.85;;;;;;;4.16;100.00;102347.91;4906385;29;20159;-87
2023/04/08 05:37:10;;;;;;;17.10;11.23;;;;;;;4.12;100.00;102352.41;4923933;29;20167;-87
2023/04/08 05:39:35;;;;;;;22.20;13.52;;;;;;;4.15;100.00;102356.53;4910561;29;20043;-87
2023/04/08 05:42:01;;;;;;;18.92;11.85;;;;;;;3.89;100.00;102339.41;4901721;29;20031;-87
2023/04/08 05:44:26;;;;;;;22.52;12.15;;;;;;;4.13;100.00;102358.75;4906243;29;20087;-88
2023/04/08 05:46:52;;;;;;;17.63;10.73;;;;;;;4.03;100.00;102348.66;4911403;29;20398;-87
2023/04/08 05:49:17;;;;;;;18.52;11.55;;;;;;;4.09;100.00;102341.94;4925331;29;20032;-87
2023/04/08 05:51:43;;;;;;;18.65;11.02;;;;;;;4.15;100.00;102349.03;4918683;29;20055;-87
2023/04/08 05:54:08;;;;;;;17.67;10.68;;;;;;;4.10;100.00;102349.09;4924669;29;20039;-87
2023/04/08 05:56:34;;;;;;;18.73;11.43;;;;;;;4.12;100.00;102351.59;4911217;29;20024;-87
2023/04/08 05:59:00;;;;;;;22.48;11.88;;;;;;;4.12;100.00;102357.13;4926691;29;20035;-87
2023/04/08 06:01:25;;;;;;;20.85;11.95;;;;;;;4.18;100.00;102358.72;4912763;29;20125;-87
2023/04/08 06:03:57;;;;;;;21.88;12.13;;;;;;;4.13;100.00;102358.75;4917923;29;20062;-87
2023/04/08 06:06:24;;;;;;;18.08;11.00;;;;;;;4.12;100.00;102352.41;4914537;29;20055;-87
2023/04/08 06:08:49;;;;;;;18.20;10.82;;;;;;;4.23;100.00;102369.72;4912794;29;20039;-87
2023/04/08 06:11:15;;;;;;;22.63;12.13;;;;;;;4.18;100.00;102365.06;4913216;29;20019;-86
2023/04/08 06:13:41;;;;;;;18.35;11.50;;;;;;;4.11;100.00;102361.84;4928093;29;20035;-87
2023/04/08 06:16:16;;;;;;;23.70;13.32;;;;;;;4.25;100.00;102373.84;4906979;29;20039;-88
2023/04/08 06:18:41;;;;;;;23.20;11.50;;;;;;;4.22;100.00;102368.91;4929406;29;20170;-87
2023/04/08 06:21:07;;;;;;;21.70;12.50;;;;;;;4.24;100.00;102361.09;4911798;29;20608;-87
2023/04/08 06:23:32;;;;;;;20.25;12.25;;;;;;;4.25;100.00;102361.94;4912636;29;20034;-88
2023/04/08 06:25:58;;;;;;;24.48;12.73;;;;;;;4.30;100.00;102385.97;4912236;29;20122;-88
2023/04/08 06:28:23;;;;;;;21.67;12.52;;;;;;;4.36;100.00;102384.78;4923858;29;20059;-87
2023/04/08 06:30:49;;;;;;;22.42;13.98;;;;;;;4.38;100.00;102396.41;4928513;29;20390;-87
2023/04/08 06:33:14;;;;;;;21.75;12.98;;;;;;;4.27;100.00;102374.34;4911707;29;20016;-88
2023/04/08 06:35:40;;;;;;;20.13;12.75;;;;;;;4.38;100.00;102404.72;4917978;29;20051;-87
2023/04/08 06:38:06;;;;;;;22.98;14.02;;;;;;;4.42;100.00;102411.31;4933167;29;20032;-86
2023/04/08 06:40:31;;;;;;;21.00;14.50;;;;;;;4.34;100.00;102414.75;4929909;29;20478;-87
2023/04/08 06:42:56;;;;;;;20.58;13.60;;;;;;;4.33;100.00;102408.38;4910861;29;20039;-87
2023/04/08 06:45:22;;;;;;;22.70;14.20;;;;;;;4.41;100.00;102404.13;4907242;29;21477;-88
2023/04/08 06:47:47;;;;;;;21.13;14.15;;;;;;;4.49;100.00;102417.34;4906643;29;20031;-87
2023/04/08 06:50:13;;;;;;;24.55;14.43;;;;;;;4.48;100.00;102410.13;4905811;29;20038;-88
2023/04/08 06:52:38;;;;;;;25.17;14.65;;;;;;;4.56;100.00;102420.53;4920103;29;20059;-87
2023/04/08 06:55:04;;;;;;;24.15;13.57;;;;;;;4.68;100.00;102426.47;4914763;29;20032;-87
2023/04/08 06:57:29;;;;;;;24.45;14.20;;;;;;;4.58;100.00;102415.53;4907661;29;20027;-87
2023/04/08 06:59:55;;;;;;;23.73;13.35;;;;;;;4.73;100.00;102435.84;4924277;29;20115;-87
2023/04/08 07:02:21;;;;;;;26.25;15.50;;;;;;;4.66;100.00;102434.28;4907029;29;20611;-86
2023/04/08 07:04:47;;;;;;;31.35;17.02;;;;;;;4.64;100.00;102430.97;4926170;29;20075;-87
2023/04/08 07:07:12;;;;;;;27.98;16.00;;;;;;;4.48;100.00;102435.91;4913452;29;20454;-86
2023/04/08 07:09:38;;;;;;;25.48;14.07;;;;;;;4.44;100.00;102431.25;4920921;29;20310;-86
2023/04/08 07:12:04;;;;;;;35.90;18.73;;;;;;;4.79;100.00;102442.97;4902583;29;20430;-85
2023/04/08 07:14:29;;;;;;;30.58;17.45;;;;;;;4.95;100.00;102440.78;4912631;29;20086;-85
2023/04/08 07:16:55;;;;;;;37.95;19.58;;;;;;;4.97;100.00;102447.66;4902975;29;20032;-84
2023/04/08 07:19:21;;;;;;;36.92;19.20;;;;;;;4.95;100.00;102447.13;4917708;29;20024;-85
2023/04/08 07:21:47;;;;;;;43.47;21.30;;;;;;;5.00;100.00;102449.84;4923464;29;20032;-85
2023/04/08 07:24:12;;;;;;;33.80;19.95;;;;;;;5.01;100.00;102445.94;4908848;29;20055;-85
2023/04/08 07:26:38;;;;;;;39.33;21.80;;;;;;;4.97;100.00;102450.44;4925197;29;20031;-84
2023/04/08 07:29:03;;;;;;;41.35;20.27;;;;;;;5.09;100.00;102450.81;4914562;29;20059;-85
2023/04/08 07:31:29;;;;;;;39.60;20.98;;;;;;;5.08;100.00;102443.63;4933661;29;20074;-85
2023/04/08 07:33:54;;;;;;;44.90;22.85;;;;;;;5.26;100.00;102464.13;4910107;29;20031;-85
2023/04/08 07:36:20;;;;;;;34.95;20.50;;;;;;;5.33;100.00;102452.63;4913925;29;20056;-84
2023/04/08 07:38:46;;;;;;;38.10;19.10;;;;;;;5.34;100.00;102465.41;4908904;29;20402;-84
2023/04/08 07:41:11;;;;;;;35.33;21.50;;;;;;;5.43;100.00;102466.34;4920636;29;20031;-84
2023/04/08 07:43:37;;;;;;;38.40;21.00;;;;;;;5.53;100.00;102459.81;4919339;29;20042;-84
2023/04/08 07:46:03;;;;;;;35.50;20.85;;;;;;;5.37;100.00;102473.13;4925888;29;21874;-84
2023/04/08 07:48:30;;;;;;;38.58;21.08;;;;;;;5.34;100.00;102470.97;4929341;29;20118;-84
2023/04/08 07:50:55;;;;;;;38.75;21.90;;;;;;;5.47;100.00;102480.47;4908724;29;20507;-84
2023/04/08 07:53:23;;;;;;;42.60;20.05;;;;;;;5.51;100.00;102473.16;4917399;29;20027;-84
2023/04/08 07:55:48;;;;;;;38.22;22.00;;;;;;;5.54;100.00;102472.56;4914432;29;20613;-85
2023/04/08 07:58:13;;;;;;;34.83;18.33;;;;;;;5.50;100.00;102486.25;4914281;29;20040;-85
2023/04/08 08:00:39;;;;;;;34.00;18.80;;;;;;;5.45;100.00;102458.53;4902412;29;20038;-86
2023/04/08 08:03:05;;;;;;;28.88;16.42;;;;;;;5.62;100.00;102473.81;4930059;29;20520;-86
2023/04/08 08:05:30;;;;;;;35.70;19.77;;;;;;;5.75;100.00;102478.56;4914696;29;20028;-86
2023/04/08 08:07:56;;;;;;;36.92;19.48;;;;;;;5.72;100.00;102481.97;4930701;29;20035;-85
2023/04/08 08:10:21;;;;;;;36.78;20.75;;;;;;;5.67;100.00;102480.13;4913846;29;20070;-85
2023/04/08 08:12:46;;;;;;;34.97;18.25;;;;;;;5.84;100.00;102467.56;4907012;29;20019;-85
2023/04/08 08:15:12;;;;;;;37.80;20.77;;;;;;;6.04;100.00;102475.56;4903837;29;20114;-84
2023/04/08 08:17:37;;;;;;;40.78;20.08;;;;;;;6.14;100.00;102482.88;4911987;29;20039;-84
2023/04/08 08:20:03;;;;;;;31.90;19.27;;;;;;;6.24;100.00;102471.56;4913154;29;20136;-84
2023/04/08 08:22:29;;;;;;;36.97;19.98;;;;;;;5.98;100.00;102464.84;4909641;29;20099;-84
2023/04/08 08:24:58;;;;;;;38.20;21.00;;;;;;;6.03;100.00;102492.53;4912276;29;20035;-84
2023/04/08 08:27:24;;;;;;;36.50;19.48;;;;;;;6.25;100.00;102475.97;4928025;29;20031;-84
2023/04/08 08:29:50;;;;;;;38.00;20.02;;;;;;;6.40;100.00;102491.50;4926422;29;20049;-84
2023/04/08 08:32:15;;;;;;;32.13;17.73;;;;;;;6.58;100.00;102470.28;4905304;29;20023;-85
2023/04/08 08:34:41;;;;;;;37.55;19.23;;;;;;;6.70;100.00;102500.34;4908824;29;20091;-83
2023/04/08 08:37:06;;;;;;;37.85;19.58;;;;;;;6.73;100.00;102488.59;4925041;29;20495;-82
2023/04/08 08:39:32;;;;;;;34.15;20.55;;;;;;;6.90;100.00;102496.28;4923029;29;20477;-82
2023/04/08 08:41:57;;;;;;;33.80;19.42;;;;;;;6.84;100.00;102503.09;4900733;29;20035;-84
2023/04/08 08:44:23;;;;;;;34.72;19.35;;;;;;;6.88;100.00;102498.56;4906349;29;20055;-87
2023/04/08 08:46:48;;;;;;;31.75;18.08;;;;;;;6.49;100.00;102484.09;4908859;29;20031;-88
2023/04/08 08:49:14;;;;;;;31.08;17.38;;;;;;;6.57;100.00;102488.09;4909891;29;20043;-87
2023/04/08 08:51:40;;;;;;;30.35;16.70;;;;;;;6.50;100.00;102488.53;4913814;29;20054;-87
2023/04/08 08:54:07;;;;;;;35.30;19.73;;;;;;;6.44;100.00;102488.94;4908003;29;20043;-88
2023/04/08 08:56:33;;;;;;;35.83;19.67;;;;;;;6.76;100.00;102493.53;4909110;29;20027;-87
2023/04/08 08:58:58;;;;;;;34.47;18.85;;;;;;;6.78;100.00;102499.59;4908965;29;20031;-87
2023/04/08 09:01:36;;;;;;;38.38;20.45;;;;;;;6.70;100.00;102498.41;4905487;29;20670;-86
2023/04/08 09:04:14;;;;;;;41.85;21.63;;;;;;;7.01;100.00;102505.22;4922195;29;20044;-86
2023/04/08 09:06:40;;;;;;;35.75;20.05;;;;;;;7.56;100.00;102510.56;4904630;29;20024;-87
2023/04/08 09:09:09;;;;;;;34.13;18.23;;;;;;;7.16;100.00;102507.66;4923865;29;20036;-86
2023/04/08 09:11:35;;;;;;;33.95;19.80;;;;;;;7.11;100.00;102511.38;4926283;29;20691;-86
2023/04/08 09:14:00;;;;;;;38.30;21.05;;;;;;;6.97;100.00;102502.25;4924072;29;20043;-86
2023/04/08 09:16:26;;;;;;;41.65;20.67;;;;;;;7.06;100.00;102500.38;4909885;29;20035;-84
2023/04/08 09:18:52;;;;;;;32.38;19.08;;;;;;;7.13;100.00;102500.75;4921300;29;20042;-86
2023/04/08 09:21:21;;;;;;;35.08;18.25;;;;;;;7.19;100.00;102495.91;4906678;29;20467;-86
2023/04/08 09:23:51;;;;;;;35.60;19.08;;;;;;;7.30;100.00;102496.47;4922690;29;20050;-85
2023/04/08 09:26:26;;;;;;;38.10;19.42;;;;;;;7.12;100.00;102489.91;4913991;29;20057;-86
2023/04/08 09:29:08;;;;;;;39.40;21.20;;;;;;;7.07;100.00;102499.22;4904883;29;22217;-86
2023/04/08 09:31:41;;;;;;;32.93;19.33;;;;;;;7.07;100.00;102492.84;4927241;29;20042;-86
2023/04/08 09:34:12;;;;;;;32.15;18.35;;;;;;;7.32;100.00;102511.72;4906352;29;20372;-86
2023/04/08 09:36:37;;;;;;;32.72;18.45;;;;;;;7.27;100.00;102514.63;4904627;29;20031;-85
2023/04/08 09:39:04;;;;;;;37.78;19.88;;;;;;;7.39;100.00;102516.03;4908365;29;20028;-86
2023/04/08 09:41:33;;;;;;;35.33;20.02;;;;;;;7.74;100.00;102522.69;4906653;29;20032;-85
2023/04/08 09:43:59;;;;;;;33.83;19.30;;;;;;;7.68;100.00;102524.75;4905187;29;20031;-85
2023/04/08 09:46:46;;;;;;;33.53;17.70;;;;;;;7.99;100.00;102528.69;4925371;29;20489;-85
2023/04/08 09:49:17;;;;;;;29.35;16.50;;;;;;;8.04;100.00;102532.19;4903576;29;20032;-85
2023/04/08 09:51:57;;;;;;;30.75;17.60;;;;;;;7.96;100.00;102527.38;4909098;29;20082;-85
2023/04/08 09:54:31;;;;;;;32.00;16.52;;;;;;;7.93;100.00;102525.25;4922628;29;20107;-84
2023/04/08 09:57:04;;;;;;;31.13;16.45;;;;;;;8.10;100.00;102524.50;4927380;29;20032;-85
2023/04/08 09:59:33;;;;;;;26.55;15.02;;;;;;;8.16;100.00;102520.44;4912227;29;20486;-85
2023/04/08 10:02:04;;;;;;;29.00;15.80;;;;;;;8.33;100.00;102528.06;4926226;29;20027;-84
2023/04/08 10:04:34;;;;;;;27.75;14.80;;;;;;;8.30;100.00;102518.34;4927776;29;20040;-84
2023/04/08 10:07:05;;;;;;;32.85;18.23;;;;;;;8.31;100.00;102496.88;4924592;29;20027;-84
2023/04/08 10:09:31;;;;;;;36.92;18.40;;;;;;;8.40;100.00;102519.22;4915386;29;20398;-85
2023/04/08 10:11:57;;;;;;;34.13;19.23;;;;;;;8.40;100.00;102505.25;4909377;29;20406;-85
2023/04/08 10:14:22;;;;;;;38.13;17.60;;;;;;;8.49;100.00;102514.50;4907219;29;20035;-84
2023/04/08 10:16:48;;;;;;;32.33;17.58;;;;;;;8.29;100.00;102497.19;4910486;29;20024;-84
2023/04/08 10:19:37;;;;;;;32.15;18.00;;;;;;;8.70;100.00;102512.75;4905569;29;20107;-84
2023/04/08 10:22:03;;;;;;;34.10;18.48;;;;;;;8.69;100.00;102518.69;4919847;29;21508;-85
2023/04/08 10:24:28;;;;;;;32.22;16.15;;;;;;;9.40;100.00;102521.19;4918950;29;20040;-80
2023/04/08 10:26:53;;;;;;;37.05;20.08;;;;;;;9.25;100.00;102524.47;4908764;29;20388;-81
2023/04/08 10:29:28;;;;;;;36.55;19.05;;;;;;;9.30;100.00;102515.94;4916094;29;20046;-81
2023/04/08 10:31:53;;;;;;;37.55;20.15;;;;;;;9.16;100.00;102516.09;4915775;29;20028;-81
2023/04/08 10:34:22;;;;;;;34.15;18.15;;;;;;;9.14;100.00;102524.81;4919517;29;20036;-81
2023/04/08 10:36:48;;;;;;;40.80;19.52;;;;;;;9.18;100.00;102513.81;4916976;29;20557;-81
2023/04/08 10:39:15;;;;;;;39.83;21.35;;;;;;;9.16;100.00;102516.91;4913254;29;20118;-80
2023/04/08 10:41:48;;;;;;;34.90;18.13;;;;;;;9.08;100.00;102514.13;4922588;29;20134;-80
2023/04/08 10:44:19;;;;;;;;;;;;;;;9.62;100.00;102522.16;4924475;29;20032;-81
2023/04/08 10:46:45;;;;;;;36.35;18.88;;;;;;;9.50;100.00;102522.81;4930594;29;19922;-81
2023/04/08 10:49:11;;;;;;;36.10;20.08;;;;;;;9.59;100.00;102508.84;4914024;29;20078;-82
2023/04/08 10:51:38;;;;;;;36.70;20.45;;;;;;;9.34;100.00;102483.41;4909149;29;20343;-82
2023/04/08 10:54:11;;;;;;;34.13;18.45;;;;;;;9.59;100.00;102515.25;4932931;29;20051;-82
2023/04/08 10:56:44;;;;;;;44.00;21.98;;;;;;;9.68;100.00;102515.25;4909524;29;20066;-81
2023/04/08 10:59:09;;;;;;;39.53;22.23;;;;;;;9.70;100.00;102507.34;4930872;29;20053;-81
2023/04/08 11:01:40;;;;;;;39.65;20.48;;;;;;;9.58;100.00;102496.84;4920941;29;20032;-81
2023/04/08 11:04:13;;;;;;;34.30;18.98;;;;;;;9.64;100.00;102503.09;4925609;29;20032;-81
2023/04/08 11:06:38;;;;;;;37.28;20.13;;;;;;;9.83;100.00;102505.50;4927022;29;20059;-81
2023/04/08 11:09:04;;;;;;;36.28;19.95;;;;;;;9.89;100.00;102502.19;4925040;29;20120;-81
2023/04/08 11:11:30;;;;;;;31.88;17.48;;;;;;;10.04;100.00;102505.63;4928550;29;20031;-82